Peru, Indiana
Current Conditions -  °F | °C
As of 10:58 AM on Friday 21 Nov 2014 (Local Time) from KGUS Reporting Station
Clear Clear  
Wind Chill: -9°   Ceiling: Unl
Heat Index: -5°   Visibility: 10mi
Dew Point: -10°   Wind: 5mph
Humidity: 72%   Direction: 160°SSE
Pressure: 30.5"   Gusts: NA
Location:  40.75°N, 86.07°W
Report Text: KGUS 211558Z AUTO 16004KT 10SM CLR M05/M10 A3050 RMK AO2 SLP345 T10531096
Loading
Personal Weather Stations






























Interactive Weather Map New forecast layout! Learn more

10-Day Weather Forecast

Advertisements
Track Severe Weather on mobile